Time;durP1;ratioP1;P1;durP2;ratioP2;P2;SDS_P1;SDS_P2;PMS_P1;PMS_P2;Temp;Humidity;BMP_temperature;BMP_pressure;BME280_temperature;BME280_humidity;BME280_pressure;Samples;Min_cycle;Max_cycle;Signal;HPM_P1;HPM_P2
2023/03/14 00:01:24;;;;;;;11.83;11.23;;;10.90;99.90;;;;;;5104818;27;20432;-49
2023/03/14 00:03:50;;;;;;;11.40;10.90;;;10.90;99.90;;;;;;5107714;27;20184;-47
2023/03/14 00:06:17;;;;;;;11.23;10.63;;;10.90;99.90;;;;;;5110476;27;20419;-48
2023/03/14 00:08:43;;;;;;;11.80;11.20;;;10.90;99.90;;;;;;5119655;27;20423;-51
2023/03/14 00:11:18;;;;;;;12.10;11.50;;;10.90;99.90;;;;;;5113252;27;21359;-48
2023/03/14 00:13:50;;;;;;;12.00;11.40;;;10.80;99.90;;;;;;5119759;27;20524;-44
2023/03/14 00:16:15;;;;;;;11.80;11.20;;;10.80;99.90;;;;;;5121943;27;20755;-45
2023/03/14 00:18:41;;;;;;;13.27;12.57;;;10.90;99.90;;;;;;5113953;27;20469;-46
2023/03/14 00:21:08;;;;;;;12.83;12.23;;;10.90;99.90;;;;;;5121796;27;20674;-50
2023/03/14 00:23:36;;;;;;;12.70;12.00;;;10.80;99.90;;;;;;5117938;27;21002;-51
2023/03/14 00:26:10;;;;;;;12.87;12.17;;;10.80;99.90;;;;;;5117290;27;20426;-47
2023/03/14 00:28:36;;;;;;;13.40;12.70;;;10.80;99.90;;;;;;5108505;27;20478;-47
2023/03/14 00:31:06;;;;;;;13.53;12.80;;;10.80;99.90;;;;;;5106961;27;20535;-47
2023/03/14 00:33:32;;;;;;;14.43;13.60;;;10.80;99.90;;;;;;5118424;27;20442;-45
2023/03/14 00:36:00;;;;;;;14.10;13.30;;;10.70;99.90;;;;;;5114392;27;20437;-49
2023/03/14 00:38:26;;;;;;;13.97;13.17;;;10.80;99.90;;;;;;5118417;27;20572;-49
2023/03/14 00:40:52;;;;;;;14.13;13.23;;;10.70;99.90;;;;;;5112233;27;20916;-47
2023/03/14 00:43:18;;;;;;;13.70;13.00;;;10.70;99.90;;;;;;5111461;27;20479;-48
2023/03/14 00:45:44;;;;;;;15.40;14.50;;;10.70;99.90;;;;;;5118676;27;20437;-49
2023/03/14 00:48:09;;;;;;;14.73;13.93;;;10.70;99.90;;;;;;5114482;27;21054;-48
2023/03/14 00:50:35;;;;;;;15.10;14.23;;;10.60;99.90;;;;;;5116863;27;20233;-47
2023/03/14 00:53:01;;;;;;;14.77;13.87;;;10.60;99.90;;;;;;5107000;27;20195;-47
2023/03/14 00:55:26;;;;;;;14.50;13.70;;;10.60;99.90;;;;;;5108650;27;20192;-48
2023/03/14 00:57:52;;;;;;;15.30;14.43;;;10.60;99.90;;;;;;5116261;27;20237;-49
2023/03/14 01:00:18;;;;;;;15.43;14.50;;;10.60;99.90;;;;;;5110247;27;20193;-48
2023/03/14 01:02:43;;;;;;;15.10;14.00;;;10.60;99.90;;;;;;5102370;27;20189;-48
2023/03/14 01:05:12;;;;;;;15.07;14.17;;;10.70;99.90;;;;;;5101427;27;20195;-53
2023/03/14 01:07:38;;;;;;;15.00;14.10;;;10.70;99.90;;;;;;5106219;27;20437;-49
2023/03/14 01:10:05;;;;;;;15.73;14.80;;;10.70;99.90;;;;;;5118295;27;20499;-50
2023/03/14 01:12:31;;;;;;;14.73;13.83;;;10.60;99.90;;;;;;5106196;27;20193;-52
2023/03/14 01:14:57;;;;;;;16.17;15.27;;;10.60;99.90;;;;;;5109906;27;20502;-50
2023/03/14 01:17:23;;;;;;;17.00;16.00;;;10.60;99.90;;;;;;5097205;28;20502;-51
2023/03/14 01:19:48;;;;;;;16.80;15.70;;;10.60;99.90;;;;;;5115916;28;20205;-51
2023/03/14 01:22:14;;;;;;;17.43;16.33;;;10.60;99.90;;;;;;5107402;28;20236;-47
2023/03/14 01:24:40;;;;;;;17.83;16.73;;;10.60;99.90;;;;;;5107438;28;20549;-49
2023/03/14 01:27:05;;;;;;;18.50;17.30;;;10.60;99.90;;;;;;5107541;28;20189;-47
2023/03/14 01:29:31;;;;;;;19.90;18.50;;;10.60;99.90;;;;;;5107562;28;20249;-52
2023/03/14 01:31:57;;;;;;;18.57;17.37;;;10.60;99.90;;;;;;5113447;28;20189;-52
2023/03/14 01:34:22;;;;;;;18.30;17.10;;;10.60;99.90;;;;;;5108585;28;20208;-48
2023/03/14 01:36:48;;;;;;;17.60;16.50;;;10.70;99.90;;;;;;5118099;28;20195;-50
2023/03/14 01:39:14;;;;;;;19.30;18.00;;;10.70;99.90;;;;;;5122651;27;20210;-49
2023/03/14 01:41:40;;;;;;;18.43;17.23;;;10.70;99.90;;;;;;5115520;27;21227;-49
2023/03/14 01:44:08;;;;;;;19.13;17.83;;;10.70;99.90;;;;;;5105754;27;20433;-50
2023/03/14 01:46:39;;;;;;;18.53;17.33;;;10.70;99.90;;;;;;5109905;27;20438;-49
2023/03/14 01:49:24;;;;;;;18.77;17.57;;;10.70;99.90;;;;;;5120101;27;20539;-52
2023/03/14 01:51:52;;;;;;;17.90;16.80;;;10.70;99.90;;;;;;5111656;27;20443;-50
2023/03/14 01:54:30;;;;;;;18.40;17.00;;;10.70;99.90;;;;;;5087268;28;20439;-47
2023/03/14 01:57:25;;;;;;;18.30;17.10;;;10.70;99.90;;;;;;5112713;27;20549;-49
2023/03/14 02:00:04;;;;;;;18.37;17.27;;;10.80;99.90;;;;;;5116519;27;20547;-52
2023/03/14 02:02:30;;;;;;;17.20;16.20;;;10.80;99.90;;;;;;5118992;27;20433;-47
2023/03/14 02:04:58;;;;;;;17.70;16.60;;;10.90;99.90;;;;;;5114198;27;20456;-47
2023/03/14 02:07:47;;;;;;;17.67;16.57;;;10.90;99.90;;;;;;5116388;27;20442;-48
2023/03/14 02:10:14;;;;;;;17.67;16.57;;;10.90;99.90;;;;;;5114349;27;20443;-51
2023/03/14 02:12:39;;;;;;;17.03;16.13;;;10.90;99.90;;;;;;5111191;27;20918;-52
2023/03/14 02:15:06;;;;;;;17.87;16.57;;;11.00;99.90;;;;;;5107989;27;20486;-51
2023/03/14 02:17:31;;;;;;;17.47;16.40;;;11.00;99.90;;;;;;5109388;27;20658;-50
2023/03/14 02:20:38;;;;;;;16.97;15.97;;;11.00;99.90;;;;;;5117756;27;20440;-49
2023/03/14 02:23:04;;;;;;;17.13;16.03;;;11.00;99.90;;;;;;5117638;27;20227;-51
2023/03/14 02:25:51;;;;;;;16.93;15.93;;;10.90;99.90;;;;;;5105103;27;20801;-48
2023/03/14 02:28:18;;;;;;;17.10;16.20;;;10.90;99.90;;;;;;5112118;27;20982;-47
2023/03/14 02:30:44;;;;;;;16.67;15.67;;;10.90;99.90;;;;;;5099974;27;20483;-48
2023/03/14 02:33:13;;;;;;;16.80;15.80;;;10.90;99.90;;;;;;5116161;27;20446;-47
2023/03/14 02:35:43;;;;;;;16.50;15.50;;;10.90;99.90;;;;;;5117202;27;20435;-50
2023/03/14 02:38:33;;;;;;;16.00;15.00;;;10.80;99.90;;;;;;5114919;27;20474;-47
2023/03/14 02:40:59;;;;;;;15.70;14.80;;;10.80;99.90;;;;;;5112808;27;20437;-49
2023/03/14 02:43:24;;;;;;;16.07;15.17;;;10.80;99.90;;;;;;5114966;27;20447;-49
2023/03/14 02:45:52;;;;;;;15.20;14.30;;;10.70;99.90;;;;;;5119543;27;20244;-48
2023/03/14 02:48:24;;;;;;;15.43;14.60;;;10.80;99.90;;;;;;5111371;27;20661;-45
2023/03/14 02:50:53;;;;;;;15.10;14.20;;;10.70;99.90;;;;;;5119111;27;20999;-49
2023/03/14 02:53:29;;;;;;;15.17;14.17;;;10.70;99.90;;;;;;5107886;27;20443;-46
2023/03/14 02:55:55;;;;;;;14.10;13.40;;;10.70;99.90;;;;;;5109012;27;20985;-51
2023/03/14 02:58:21;;;;;;;13.40;12.70;;;10.70;99.90;;;;;;5116966;27;20466;-49
2023/03/14 03:00:47;;;;;;;13.70;12.90;;;10.70;99.90;;;;;;5120022;27;20203;-51
2023/03/14 03:03:13;;;;;;;13.40;12.70;;;10.80;99.90;;;;;;5108668;27;20190;-50
2023/03/14 03:05:39;;;;;;;13.40;12.70;;;10.80;99.90;;;;;;5105884;27;20464;-49
2023/03/14 03:08:05;;;;;;;13.97;13.17;;;10.80;99.90;;;;;;5107105;27;21128;-53
2023/03/14 03:10:32;;;;;;;13.70;12.80;;;10.80;99.90;;;;;;5107878;27;20205;-47
2023/03/14 03:12:57;;;;;;;13.30;12.60;;;10.80;99.90;;;;;;5109863;27;20851;-46
2023/03/14 03:15:24;;;;;;;13.70;12.90;;;10.80;99.90;;;;;;5105615;27;20511;-46
2023/03/14 03:17:49;;;;;;;12.90;12.30;;;10.80;99.90;;;;;;5096918;27;20571;-48
2023/03/14 03:20:15;;;;;;;13.40;12.70;;;10.80;99.90;;;;;;5122419;27;20420;-51
2023/03/14 03:22:41;;;;;;;13.40;12.70;;;10.80;99.90;;;;;;5119730;27;20756;-48
2023/03/14 03:25:09;;;;;;;12.90;12.20;;;10.80;99.90;;;;;;5118374;27;20782;-50
2023/03/14 03:27:36;;;;;;;12.20;11.63;;;10.80;99.90;;;;;;5119784;27;20440;-52
2023/03/14 03:30:03;;;;;;;12.30;11.70;;;10.80;99.90;;;;;;5111866;27;20439;-51
2023/03/14 03:32:28;;;;;;;12.30;11.60;;;10.80;99.90;;;;;;5110641;27;20486;-49
2023/03/14 03:34:54;;;;;;;11.80;11.20;;;10.80;99.90;;;;;;5119745;27;20448;-50
2023/03/14 03:37:20;;;;;;;11.53;11.03;;;10.80;99.90;;;;;;5115132;27;20213;-47
2023/03/14 03:39:45;;;;;;;11.60;11.00;;;10.70;99.90;;;;;;5121093;27;20240;-47
2023/03/14 03:42:11;;;;;;;11.70;11.20;;;10.70;99.90;;;;;;5111661;27;20272;-51
2023/03/14 03:44:37;;;;;;;11.10;10.60;;;10.70;99.90;;;;;;5111425;27;20197;-48
2023/03/14 03:47:03;;;;;;;11.17;10.67;;;10.70;99.90;;;;;;5107920;27;20216;-49
2023/03/14 03:49:30;;;;;;;11.57;11.07;;;10.70;99.90;;;;;;5110647;27;20512;-48
2023/03/14 03:51:56;;;;;;;11.40;10.90;;;10.70;99.90;;;;;;5111761;27;20542;-45
2023/03/14 03:54:21;;;;;;;11.87;11.30;;;10.70;99.90;;;;;;5111525;27;20877;-51
2023/03/14 03:56:47;;;;;;;10.90;10.40;;;10.70;99.90;;;;;;5109759;27;20459;-51
2023/03/14 03:59:12;;;;;;;10.87;10.40;;;10.70;99.90;;;;;;5095364;27;20176;-46
2023/03/14 04:01:38;;;;;;;11.10;10.60;;;10.70;99.90;;;;;;5112023;27;20223;-49
2023/03/14 04:04:04;;;;;;;11.07;10.57;;;10.70;99.90;;;;;;5104267;27;20879;-50
2023/03/14 04:06:29;;;;;;;10.50;10.10;;;10.70;99.90;;;;;;5107495;27;20182;-48
2023/03/14 04:08:55;;;;;;;10.50;10.10;;;10.70;99.90;;;;;;5102512;27;20192;-47
2023/03/14 04:11:21;;;;;;;10.53;10.13;;;10.70;99.90;;;;;;5111603;27;20231;-48
2023/03/14 04:13:46;;;;;;;10.13;9.73;;;10.70;99.90;;;;;;5112058;27;20181;-48
2023/03/14 04:16:18;;;;;;;10.10;9.70;;;10.70;99.90;;;;;;5108330;27;20195;-50
2023/03/14 04:18:43;;;;;;;10.70;10.20;;;10.80;99.90;;;;;;5104274;27;20204;-48
2023/03/14 04:21:09;;;;;;;10.10;9.70;;;11.10;99.90;;;;;;5115801;27;20452;-48
2023/03/14 04:23:35;;;;;;;10.63;10.23;;;11.10;99.90;;;;;;5119252;27;20325;-49
2023/03/14 04:26:00;;;;;;;10.30;9.90;;;11.20;99.90;;;;;;5105318;27;20453;-49
2023/03/14 04:28:26;;;;;;;10.20;9.80;;;11.20;99.90;;;;;;5102281;27;20195;-50
2023/03/14 04:30:52;;;;;;;9.80;9.40;;;11.20;99.90;;;;;;5105372;27;20188;-46
2023/03/14 04:33:17;;;;;;;9.93;9.53;;;11.30;99.90;;;;;;5116053;27;20269;-49
2023/03/14 04:35:44;;;;;;;9.67;9.27;;;11.30;99.90;;;;;;5108096;27;20190;-46
2023/03/14 04:38:10;;;;;;;9.67;9.27;;;11.40;99.90;;;;;;5108971;27;20570;-48
2023/03/14 04:40:40;;;;;;;10.07;9.57;;;11.50;99.90;;;;;;5111704;27;20451;-51
2023/03/14 04:43:07;;;;;;;9.63;9.23;;;11.50;99.90;;;;;;5115503;27;20439;-47
2023/03/14 04:45:32;;;;;;;9.50;9.10;;;11.40;99.90;;;;;;5112017;27;20466;-52
2023/03/14 04:47:58;;;;;;;9.90;9.37;;;11.40;99.90;;;;;;5105287;27;21286;-48
2023/03/14 04:50:23;;;;;;;9.53;9.13;;;11.40;99.90;;;;;;5106413;27;20193;-49
2023/03/14 04:52:49;;;;;;;9.30;8.90;;;11.40;99.90;;;;;;5109222;27;20226;-47
2023/03/14 04:55:15;;;;;;;9.80;9.40;;;11.40;99.90;;;;;;5102080;28;20194;-46
2023/03/14 04:57:40;;;;;;;9.30;9.00;;;11.40;99.90;;;;;;5111625;27;20554;-50
2023/03/14 05:00:07;;;;;;;9.40;9.00;;;11.40;99.90;;;;;;5113067;27;20213;-49
2023/03/14 05:02:33;;;;;;;9.60;9.20;;;11.30;99.90;;;;;;5108642;27;20193;-47
2023/03/14 05:04:59;;;;;;;9.10;8.80;;;11.20;99.90;;;;;;5107346;27;20435;-46
2023/03/14 05:07:24;;;;;;;8.90;8.60;;;11.20;99.90;;;;;;5102958;28;20824;-50
2023/03/14 05:09:50;;;;;;;8.90;8.50;;;11.20;99.90;;;;;;5112134;27;20177;-46
2023/03/14 05:12:15;;;;;;;9.67;9.20;;;11.10;99.90;;;;;;5118559;27;20254;-51
2023/03/14 05:14:41;;;;;;;8.97;8.57;;;11.20;99.90;;;;;;5113807;27;20199;-50
2023/03/14 05:17:07;;;;;;;8.67;8.27;;;11.30;99.90;;;;;;5109594;27;20217;-49
2023/03/14 05:19:32;;;;;;;9.10;8.70;;;11.40;99.90;;;;;;5106312;28;20194;-46
2023/03/14 05:21:58;;;;;;;8.53;8.13;;;11.50;99.90;;;;;;5118417;28;20240;-47
2023/03/14 05:24:23;;;;;;;8.30;8.00;;;11.50;99.90;;;;;;5103308;28;20183;-45
2023/03/14 05:26:49;;;;;;;9.23;8.83;;;11.60;99.90;;;;;;5107411;28;20194;-48
2023/03/14 05:29:14;;;;;;;8.57;8.17;;;11.70;99.90;;;;;;5111534;28;20218;-52
2023/03/14 05:31:40;;;;;;;9.77;9.27;;;11.70;99.90;;;;;;5113387;28;20191;-52
2023/03/14 05:34:06;;;;;;;9.00;8.50;;;11.70;99.90;;;;;;5108673;28;20258;-52
2023/03/14 05:36:31;;;;;;;9.20;8.80;;;11.90;99.90;;;;;;5116141;28;20227;-44
2023/03/14 05:38:57;;;;;;;8.70;8.30;;;11.90;99.90;;;;;;5107396;28;20264;-50
2023/03/14 05:41:22;;;;;;;9.30;8.90;;;11.90;99.90;;;;;;5102848;28;20236;-50
2023/03/14 05:43:48;;;;;;;9.67;9.20;;;11.80;99.90;;;;;;5108770;28;20222;-46
2023/03/14 05:46:13;;;;;;;9.10;8.70;;;11.80;99.90;;;;;;5113282;28;20224;-46
2023/03/14 05:48:39;;;;;;;8.60;8.20;;;11.90;99.90;;;;;;5109274;28;20653;-49
2023/03/14 05:51:05;;;;;;;8.70;8.17;;;11.80;99.90;;;;;;5115802;28;20215;-48
2023/03/14 05:53:31;;;;;;;9.87;9.17;;;11.80;99.90;;;;;;5110489;28;20238;-50
2023/03/14 05:55:56;;;;;;;9.20;8.70;;;11.70;99.90;;;;;;5118926;28;21333;-50
2023/03/14 05:58:22;;;;;;;9.10;8.70;;;11.80;99.90;;;;;;5101002;28;20211;-50
2023/03/14 06:00:48;;;;;;;9.00;8.57;;;11.80;99.90;;;;;;5102873;28;20566;-47
2023/03/14 06:03:14;;;;;;;8.77;8.23;;;11.80;99.90;;;;;;5100903;28;20421;-48
2023/03/14 06:05:40;;;;;;;9.07;8.57;;;11.80;99.90;;;;;;5100413;28;20398;-51
2023/03/14 06:08:06;;;;;;;9.10;8.53;;;11.80;99.90;;;;;;5103845;28;20190;-52
2023/03/14 06:10:31;;;;;;;9.13;8.63;;;11.80;99.90;;;;;;5108738;28;20596;-44
2023/03/14 06:12:57;;;;;;;10.40;9.70;;;11.70;99.90;;;;;;5119944;28;20252;-51
2023/03/14 06:15:22;;;;;;;9.50;8.90;;;11.60;99.90;;;;;;5099677;28;20179;-49
2023/03/14 06:17:48;;;;;;;8.80;8.30;;;11.60;99.90;;;;;;5086216;28;20241;-49
2023/03/14 06:20:14;;;;;;;9.43;8.93;;;11.60;99.90;;;;;;5119553;28;20197;-49
2023/03/14 06:22:40;;;;;;;8.73;8.30;;;11.50;99.90;;;;;;5108254;28;20361;-47
2023/03/14 06:25:06;;;;;;;9.17;8.70;;;11.50;99.90;;;;;;5102149;28;20206;-51
2023/03/14 06:27:32;;;;;;;9.63;8.97;;;11.50;99.90;;;;;;5104086;27;20447;-51
2023/03/14 06:29:58;;;;;;;8.87;8.37;;;11.60;99.90;;;;;;5123877;27;20450;-47
2023/03/14 06:32:24;;;;;;;10.07;9.47;;;11.70;99.90;;;;;;5119501;27;20878;-45
2023/03/14 06:34:50;;;;;;;9.30;8.80;;;11.70;99.90;;;;;;5122420;27;20197;-45
2023/03/14 06:37:15;;;;;;;9.40;8.90;;;11.70;99.90;;;;;;5123744;27;20787;-46
2023/03/14 06:39:41;;;;;;;9.50;9.00;;;11.80;99.90;;;;;;5124289;27;20214;-52
2023/03/14 06:42:07;;;;;;;9.10;8.70;;;11.90;99.90;;;;;;5123599;27;20189;-50
2023/03/14 06:44:32;;;;;;;9.27;8.70;;;11.90;99.90;;;;;;5118326;27;20214;-50
2023/03/14 06:46:58;;;;;;;10.60;10.10;;;11.90;99.90;;;;;;5102085;27;20188;-48
2023/03/14 06:49:23;;;;;;;9.97;9.30;;;12.00;99.90;;;;;;5102458;27;20202;-47
2023/03/14 06:51:49;;;;;;;10.27;9.67;;;12.00;99.90;;;;;;5105901;27;20641;-50
2023/03/14 06:54:15;;;;;;;9.40;8.90;;;12.00;99.90;;;;;;5123225;27;20194;-49
2023/03/14 06:56:40;;;;;;;9.77;9.03;;;11.90;99.90;;;;;;5123390;27;20265;-48
2023/03/14 06:59:06;;;;;;;9.53;9.03;;;11.90;99.90;;;;;;5121217;27;20195;-48
2023/03/14 07:01:32;;;;;;;9.20;8.80;;;12.00;99.90;;;;;;5122748;27;20189;-51
2023/03/14 07:03:58;;;;;;;9.77;9.00;;;12.00;99.90;;;;;;5104736;27;20236;-48
2023/03/14 07:06:24;;;;;;;10.40;9.80;;;12.00;99.90;;;;;;5103582;27;20442;-47
2023/03/14 07:08:50;;;;;;;10.00;9.40;;;12.10;99.90;;;;;;5107368;27;20918;-50
2023/03/14 07:11:16;;;;;;;9.97;9.13;;;12.20;99.90;;;;;;5118179;27;20564;-47
2023/03/14 07:13:41;;;;;;;9.30;8.60;;;12.30;99.90;;;;;;5108828;27;20238;-46
2023/03/14 07:16:08;;;;;;;9.17;8.67;;;12.20;99.90;;;;;;5108637;27;20185;-50
2023/03/14 07:18:34;;;;;;;9.77;9.07;;;12.20;99.90;;;;;;5103411;27;20549;-46
2023/03/14 07:20:59;;;;;;;10.70;10.13;;;12.10;99.90;;;;;;5103642;27;20409;-51
2023/03/14 07:23:25;;;;;;;9.80;9.20;;;12.10;99.90;;;;;;5095203;27;20234;-47
2023/03/14 07:25:53;;;;;;;9.93;9.23;;;12.20;99.90;;;;;;5102897;27;20525;-45
2023/03/14 07:28:19;;;;;;;10.50;9.90;;;12.20;99.90;;;;;;5122922;27;20495;-48
2023/03/14 07:30:46;;;;;;;10.40;9.80;;;12.10;99.90;;;;;;5122836;27;20422;-47
2023/03/14 07:33:12;;;;;;;10.77;10.00;;;12.20;99.90;;;;;;5109064;27;20970;-46
2023/03/14 07:35:38;;;;;;;10.23;9.50;;;12.30;99.90;;;;;;5102561;28;20408;-47
2023/03/14 07:38:03;;;;;;;10.80;10.10;;;12.30;99.90;;;;;;5121815;27;20545;-46
2023/03/14 07:40:29;;;;;;;9.97;9.27;;;12.30;99.90;;;;;;5123070;27;20179;-48
2023/03/14 07:42:55;;;;;;;10.87;10.17;;;12.40;99.90;;;;;;5121595;27;20922;-46
2023/03/14 07:45:21;;;;;;;9.60;9.10;;;12.40;99.90;;;;;;5122721;27;20236;-47
2023/03/14 07:47:46;;;;;;;10.77;10.07;;;12.50;99.90;;;;;;5122758;27;20240;-49
2023/03/14 07:50:12;;;;;;;10.33;9.73;;;12.40;99.90;;;;;;5112382;27;20521;-50
2023/03/14 07:52:38;;;;;;;11.33;10.33;;;12.50;99.90;;;;;;5102641;27;20183;-50
2023/03/14 07:55:04;;;;;;;10.27;9.67;;;12.50;99.90;;;;;;5102682;27;20195;-45
2023/03/14 07:57:29;;;;;;;11.90;11.13;;;12.50;99.90;;;;;;5102754;27;20252;-50
2023/03/14 07:59:55;;;;;;;10.27;9.77;;;12.50;99.90;;;;;;5102672;27;20429;-47
2023/03/14 08:02:22;;;;;;;9.33;8.83;;;12.50;99.90;;;;;;5102215;27;20566;-46
2023/03/14 08:04:47;;;;;;;10.70;9.90;;;12.50;99.90;;;;;;5102295;27;20187;-49
2023/03/14 08:07:13;;;;;;;10.07;9.37;;;12.60;99.90;;;;;;5112437;27;20421;-50
2023/03/14 08:09:38;;;;;;;10.80;10.10;;;12.40;99.90;;;;;;5109656;27;20183;-48
2023/03/14 08:12:04;;;;;;;10.40;9.77;;;12.50;99.90;;;;;;5107457;27;21019;-46
2023/03/14 08:14:30;;;;;;;10.23;9.60;;;12.50;99.90;;;;;;5103159;27;20187;-47
2023/03/14 08:16:58;;;;;;;9.97;9.47;;;12.50;99.90;;;;;;5114806;27;20576;-51
2023/03/14 08:19:24;;;;;;;10.40;9.90;;;12.70;99.90;;;;;;5120772;27;20421;-50
2023/03/14 08:21:50;;;;;;;10.20;9.60;;;12.70;99.90;;;;;;5121401;27;20437;-49
2023/03/14 08:24:16;;;;;;;9.33;8.83;;;12.70;99.90;;;;;;5120998;27;20186;-48
2023/03/14 08:26:41;;;;;;;9.03;8.53;;;12.80;99.90;;;;;;5121545;27;20191;-49
2023/03/14 08:29:08;;;;;;;9.30;8.90;;;12.80;99.90;;;;;;5121434;27;20195;-48
2023/03/14 08:31:35;;;;;;;9.73;9.20;;;12.90;99.90;;;;;;5121717;27;20255;-49
2023/03/14 08:34:01;;;;;;;9.10;8.60;;;12.90;99.90;;;;;;5101263;27;20444;-51
2023/03/14 08:36:27;;;;;;;9.23;8.77;;;13.00;99.90;;;;;;5121637;27;20485;-50
2023/03/14 08:38:53;;;;;;;9.30;8.70;;;13.00;99.90;;;;;;5119094;27;20974;-49
2023/03/14 08:41:18;;;;;;;9.67;9.00;;;13.00;99.90;;;;;;5121301;27;20424;-45
2023/03/14 08:43:44;;;;;;;9.30;8.80;;;13.10;99.90;;;;;;5120549;27;20191;-45
2023/03/14 08:46:10;;;;;;;9.13;8.60;;;13.30;99.90;;;;;;5120281;27;20183;-47
2023/03/14 08:48:35;;;;;;;9.40;9.00;;;13.40;99.90;;;;;;5101076;27;20190;-45
2023/03/14 08:51:06;;;;;;;10.20;9.70;;;13.50;99.90;;;;;;5118809;27;20491;-48
2023/03/14 08:53:32;;;;;;;9.03;8.63;;;13.60;99.90;;;;;;5108704;27;20262;-48
2023/03/14 08:55:58;;;;;;;9.50;9.10;;;13.80;99.90;;;;;;5118253;27;20421;-45
2023/03/14 08:58:23;;;;;;;8.83;8.33;;;13.90;99.70;;;;;;5121404;27;20271;-48
2023/03/14 09:00:49;;;;;;;9.20;8.70;;;13.90;98.70;;;;;;5109622;27;20239;-44
2023/03/14 09:03:15;;;;;;;9.07;8.67;;;13.90;98.90;;;;;;5110262;27;20700;-45
2023/03/14 09:05:41;;;;;;;9.77;9.37;;;13.80;99.70;;;;;;5112076;27;21013;-47
2023/03/14 09:08:06;;;;;;;9.17;8.77;;;13.90;99.70;;;;;;5101529;28;20289;-45
2023/03/14 09:10:32;;;;;;;8.43;8.10;;;13.70;98.00;;;;;;5101694;28;20242;-46
2023/03/14 09:12:58;;;;;;;9.20;8.80;;;13.60;97.20;;;;;;5101358;28;20714;-47
2023/03/14 09:15:24;;;;;;;9.80;9.30;;;13.60;98.30;;;;;;5108556;27;20180;-44
2023/03/14 09:17:49;;;;;;;9.90;9.40;;;13.60;98.40;;;;;;5105068;28;21049;-46
2023/03/14 09:20:15;;;;;;;10.20;9.70;;;13.60;98.90;;;;;;5120474;28;20452;-46
2023/03/14 09:22:41;;;;;;;9.70;9.20;;;13.60;99.30;;;;;;5120193;28;20645;-48
2023/03/14 09:25:07;;;;;;;11.40;10.80;;;13.80;99.50;;;;;;5119318;28;20412;-49
2023/03/14 09:27:33;;;;;;;10.90;10.07;;;13.80;99.40;;;;;;5102488;28;20285;-46
2023/03/14 09:29:58;;;;;;;10.27;9.67;;;14.00;99.30;;;;;;5109406;28;20431;-50
2023/03/14 09:32:24;;;;;;;10.87;10.27;;;14.20;98.20;;;;;;5119159;28;20182;-48
2023/03/14 09:34:49;;;;;;;10.90;10.30;;;14.30;98.60;;;;;;5118555;28;20198;-52
2023/03/14 09:37:16;;;;;;;9.93;9.30;;;14.40;98.70;;;;;;5120524;28;20210;-49
2023/03/14 09:39:42;;;;;;;9.73;9.23;;;14.30;97.90;;;;;;5120415;28;20205;-46
2023/03/14 09:42:25;;;;;;;9.80;9.30;;;14.30;97.80;;;;;;5120600;28;20431;-49
2023/03/14 09:45:02;;;;;;;9.60;9.10;;;14.30;97.40;;;;;;5120186;28;20479;-47
2023/03/14 09:47:29;;;;;;;9.30;8.90;;;14.00;98.60;;;;;;5120755;28;20412;-52
2023/03/14 09:49:54;;;;;;;9.87;9.20;;;14.10;99.00;;;;;;5120505;28;20417;-50
2023/03/14 09:52:36;;;;;;;10.60;9.90;;;14.10;99.10;;;;;;5120209;28;20431;-47
2023/03/14 09:55:13;;;;;;;11.10;10.50;;;14.10;98.90;;;;;;5108825;28;20191;-52
2023/03/14 09:57:41;;;;;;;10.33;9.60;;;14.10;98.50;;;;;;5119705;28;20474;-50
2023/03/14 10:00:19;;;;;;;9.70;9.30;;;14.10;99.10;;;;;;5107018;27;20858;-50
2023/03/14 10:02:54;;;;;;;9.70;9.20;;;14.10;98.20;;;;;;5121107;27;20405;-50
2023/03/14 10:05:23;;;;;;;9.33;8.83;;;14.00;96.30;;;;;;5124796;27;20503;-49
2023/03/14 10:07:49;;;;;;;9.83;9.23;;;13.90;96.40;;;;;;5124095;27;20459;-51
2023/03/14 10:10:20;;;;;;;9.40;9.00;;;13.90;97.90;;;;;;5121827;27;20489;-49
2023/03/14 10:12:48;;;;;;;10.37;9.87;;;13.90;97.50;;;;;;5122254;27;20431;-49
2023/03/14 10:15:22;;;;;;;9.93;9.43;;;13.80;97.50;;;;;;5116276;27;20417;-45
2023/03/14 10:17:49;;;;;;;9.23;8.83;;;13.90;97.40;;;;;;5118681;27;20459;-45
2023/03/14 10:20:41;;;;;;;9.20;8.90;;;13.80;95.80;;;;;;5116648;27;20463;-47
2023/03/14 10:23:12;;;;;;;9.20;8.80;;;13.60;95.70;;;;;;5123595;27;20461;-43
2023/03/14 10:25:57;;;;;;;9.30;8.80;;;13.60;96.10;;;;;;5123907;27;20448;-43
2023/03/14 10:28:38;;;;;;;8.73;8.43;;;13.60;96.60;;;;;;5123924;27;20405;-45
2023/03/14 10:31:04;;;;;;;8.57;8.27;;;13.60;96.00;;;;;;5112575;27;20432;-45
2023/03/14 10:33:33;;;;;;;8.60;8.00;;;13.70;96.30;;;;;;5124041;27;20459;-42
2023/03/14 10:36:01;;;;;;;9.10;8.70;;;13.70;95.40;;;;;;5123876;27;20182;-42
2023/03/14 10:38:29;;;;;;;8.83;8.43;;;13.80;97.50;;;;;;5114531;27;20852;-44
2023/03/14 10:40:57;;;;;;;9.00;8.70;;;13.70;95.60;;;;;;5122236;27;21170;-44
2023/03/14 10:43:42;;;;;;;9.13;8.83;;;13.70;95.70;;;;;;5122907;27;20482;-49
2023/03/14 10:46:19;;;;;;;9.20;8.77;;;13.70;95.80;;;;;;5118563;27;20420;-47
2023/03/14 10:48:46;;;;;;;8.90;8.50;;;13.80;96.00;;;;;;5121934;27;20424;-45
2023/03/14 10:51:11;;;;;;;9.07;8.67;;;13.80;94.60;;;;;;5119462;27;20437;-46
2023/03/14 10:53:56;;;;;;;9.27;8.77;;;13.70;94.30;;;;;;5114083;27;20858;-44
2023/03/14 10:56:24;;;;;;;7.60;7.30;;;13.70;95.10;;;;;;5110934;27;20697;-44
2023/03/14 10:58:56;;;;;;;8.70;8.20;;;13.70;94.60;;;;;;5104308;27;20453;-45
2023/03/14 11:01:27;;;;;;;8.10;7.70;;;13.80;95.20;;;;;;5120978;27;20428;-43
2023/03/14 11:04:15;;;;;;;8.90;8.50;;;13.80;95.20;;;;;;5123085;27;20870;-43
2023/03/14 11:06:49;;;;;;;8.50;8.00;;;13.80;94.60;;;;;;5122778;27;20436;-44
2023/03/14 11:09:22;;;;;;;9.53;9.03;;;13.80;94.30;;;;;;5122346;27;20428;-45
2023/03/14 11:11:48;;;;;;;9.40;8.73;;;13.80;95.00;;;;;;5113973;27;20444;-45
2023/03/14 11:14:29;;;;;;;9.20;8.80;;;13.80;95.50;;;;;;5115789;27;20433;-45
2023/03/14 11:17:34;;;;;;;9.20;8.80;;;13.90;95.00;;;;;;5108149;27;20305;-47
2023/03/14 11:20:15;;;;;;;9.20;8.80;;;13.90;95.40;;;;;;5121106;27;20871;-45
2023/03/14 11:23:16;;;;;;;10.20;9.80;;;14.00;94.70;;;;;;5114754;27;21053;-45
2023/03/14 11:26:14;;;;;;;9.70;9.30;;;14.10;95.10;;;;;;5101638;27;20776;-43
2023/03/14 11:28:45;;;;;;;9.50;9.10;;;14.20;95.40;;;;;;5121098;27;20469;-44
2023/03/14 11:31:19;;;;;;;9.90;9.50;;;14.30;94.40;;;;;;5122317;27;20817;-47
2023/03/14 11:33:44;;;;;;;8.87;8.47;;;14.30;93.50;;;;;;5119550;27;20429;-45
2023/03/14 11:36:17;;;;;;;9.47;8.97;;;14.30;93.30;;;;;;5121593;27;20485;-45
2023/03/14 11:38:51;;;;;;;9.17;8.87;;;14.30;93.70;;;;;;5122133;27;20698;-45
2023/03/14 11:41:24;;;;;;;10.00;9.40;;;14.20;93.50;;;;;;5122166;27;20411;-44
2023/03/14 11:43:58;;;;;;;9.30;8.80;;;14.50;95.30;;;;;;5120161;27;20771;-46
2023/03/14 11:46:29;;;;;;;9.53;9.13;;;14.90;92.40;;;;;;5121869;27;20504;-44
2023/03/14 11:48:55;;;;;;;9.03;8.63;;;14.80;91.20;;;;;;5120928;27;20431;-48
2023/03/14 11:51:29;;;;;;;9.13;8.53;;;14.90;91.70;;;;;;5121862;27;20902;-44
2023/03/14 11:54:20;;;;;;;9.10;8.70;;;15.00;91.80;;;;;;5107434;27;20232;-46
2023/03/14 11:56:52;;;;;;;9.40;9.00;;;15.10;91.00;;;;;;5121933;27;20830;-45
2023/03/14 11:59:27;;;;;;;9.00;8.70;;;14.90;88.20;;;;;;5119400;27;20468;-46
2023/03/14 12:02:05;;;;;;;9.23;8.83;;;14.90;90.00;;;;;;5117749;27;20441;-44
2023/03/14 12:04:50;;;;;;;8.90;8.50;;;14.80;91.40;;;;;;5109809;27;20433;-42
2023/03/14 12:07:23;;;;;;;7.93;7.63;;;14.70;91.00;;;;;;5121799;27;20492;-41
2023/03/14 12:09:50;;;;;;;8.60;8.20;;;14.50;89.90;;;;;;5109019;27;20769;-46
2023/03/14 12:12:25;;;;;;;8.43;8.13;;;14.30;90.70;;;;;;5121270;27;20415;-43
2023/03/14 12:14:59;;;;;;;8.87;8.47;;;14.30;91.00;;;;;;5110758;27;20429;-44
2023/03/14 12:17:37;;;;;;;9.10;8.70;;;14.30;90.70;;;;;;5107598;27;20499;-44
2023/03/14 12:20:06;;;;;;;8.23;7.93;;;14.40;90.50;;;;;;5116217;27;20419;-44
2023/03/14 12:22:43;;;;;;;9.27;8.87;;;14.50;91.30;;;;;;5120542;27;20460;-44
2023/03/14 12:25:11;;;;;;;9.40;9.00;;;14.90;90.70;;;;;;5108480;27;21169;-41
2023/03/14 12:27:54;;;;;;;9.30;8.90;;;15.20;89.00;;;;;;5109204;27;20459;-44
2023/03/14 12:30:30;;;;;;;9.80;9.30;;;15.60;86.40;;;;;;5117401;27;20468;-43
2023/03/14 12:33:19;;;;;;;9.80;9.40;;;15.90;85.50;;;;;;5103037;27;20420;-42
2023/03/14 12:35:50;;;;;;;8.53;8.13;;;16.10;83.70;;;;;;5120251;27;20416;-42
2023/03/14 12:38:25;;;;;;;8.90;8.50;;;16.10;83.70;;;;;;5121494;27;20604;-42
2023/03/14 12:41:21;;;;;;;9.00;8.60;;;16.00;85.20;;;;;;5121082;27;20902;-45
2023/03/14 12:43:47;;;;;;;8.70;8.40;;;16.20;88.50;;;;;;5117860;27;20468;-47
2023/03/14 12:46:25;;;;;;;8.07;7.77;;;16.60;88.70;;;;;;5114460;27;20611;-46